Time;durP1;ratioP1;P1;durP2;ratioP2;P2;SDS_P1;SDS_P2;PMS_P1;PMS_P2;Temp;Humidity;BMP_temperature;BMP_pressure;BME280_temperature;BME280_humidity;BME280_pressure;Samples;Min_cycle;Max_cycle;Signal;HPM_P1;HPM_P2
2021/05/20 00:00:25;;;;;;;5.17;3.37;;;;;;;;;;5014561;28;20512;-52
2021/05/20 00:02:57;;;;;;;4.47;3.33;;;;;;;;;;5014554;28;20049;-52
2021/05/20 00:05:32;;;;;;;6.20;4.13;;;;;;;;;;5014378;28;20026;-52
2021/05/20 00:08:06;;;;;;;4.95;2.95;;;;;;;;;;5014540;28;20026;-52
2021/05/20 00:10:33;;;;;;;6.55;3.35;;;;;;;;;;5014039;28;20057;-52
2021/05/20 00:13:10;;;;;;;6.90;3.80;;;;;;;;;;5014707;28;20069;-52
2021/05/20 00:15:42;;;;;;;7.17;3.67;;;;;;;;;;5014274;28;20026;-52
2021/05/20 00:18:08;;;;;;;6.77;3.30;;;;;;;;;;5013341;28;20069;-52
2021/05/20 00:20:35;;;;;;;5.00;3.47;;;;;;;;;;5014178;28;20030;-53
2021/05/20 00:23:02;;;;;;;4.67;3.33;;;;;;;;;;5014163;28;20385;-52
2021/05/20 00:25:29;;;;;;;9.27;3.87;;;;;;;;;;5014142;28;20018;-52
2021/05/20 00:27:56;;;;;;;4.53;3.13;;;;;;;;;;5014260;28;20030;-52
2021/05/20 00:30:23;;;;;;;9.37;4.20;;;;;;;;;;5014272;28;20080;-53
2021/05/20 00:32:49;;;;;;;5.27;3.40;;;;;;;;;;5014014;28;20080;-52
2021/05/20 00:35:16;;;;;;;5.80;3.67;;;;;;;;;;5014071;28;20026;-52
2021/05/20 00:37:43;;;;;;;11.07;4.40;;;;;;;;;;5013989;28;20026;-52
2021/05/20 00:40:10;;;;;;;7.00;3.33;;;;;;;;;;5013968;28;20025;-52
2021/05/20 00:43:03;;;;;;;;;;;;;;;;;;;;;
2021/05/20 00:45:40;;;;;;;8.50;3.37;;;;;;;;;;5013870;28;20028;-54
2021/05/20 00:48:13;;;;;;;10.47;3.87;;;;;;;;;;5015344;28;20049;-52
2021/05/20 00:50:57;;;;;;;5.57;3.47;;;;;;;;;;5013973;28;20053;-53
2021/05/20 00:53:31;;;;;;;7.45;4.10;;;;;;;;;;5013486;28;20084;-54
2021/05/20 00:56:08;;;;;;;5.90;4.17;;;;;;;;;;5013556;28;20030;-52
2021/05/20 00:58:48;;;;;;;7.07;3.50;;;;;;;;;;5013419;28;20314;-52
2021/05/20 01:01:29;;;;;;;5.90;3.07;;;;;;;;;;5013675;28;20469;-52
2021/05/20 01:03:57;;;;;;;7.57;4.03;;;;;;;;;;5013543;28;20101;-53
2021/05/20 01:06:33;;;;;;;12.30;3.87;;;;;;;;;;5013352;28;20108;-53
2021/05/20 01:09:03;;;;;;;10.17;4.57;;;;;;;;;;5011607;28;20409;-53
2021/05/20 01:11:30;;;;;;;8.70;4.90;;;;;;;;;;4995609;28;20097;-54
2021/05/20 01:13:57;;;;;;;11.17;4.70;;;;;;;;;;5013380;28;20030;-53
2021/05/20 01:16:23;;;;;;;9.10;4.80;;;;;;;;;;5013290;28;20026;-53
2021/05/20 01:18:50;;;;;;;8.00;3.83;;;;;;;;;;5013171;28;20038;-53
2021/05/20 01:21:33;;;;;;;4.90;3.43;;;;;;;;;;5013273;28;20033;-52
2021/05/20 01:24:04;;;;;;;6.67;3.70;;;;;;;;;;5011141;28;20037;-51
2021/05/20 01:26:32;;;;;;;5.83;3.30;;;;;;;;;;5013146;28;20499;-51
2021/05/20 01:28:58;;;;;;;8.17;3.73;;;;;;;;;;5012437;28;20037;-52
2021/05/20 01:31:25;;;;;;;7.73;3.30;;;;;;;;;;5012972;28;20046;-52
2021/05/20 01:33:52;;;;;;;5.77;3.73;;;;;;;;;;5012494;28;20037;-52
2021/05/20 01:36:29;;;;;;;6.20;3.20;;;;;;;;;;5012990;28;20057;-52
2021/05/20 01:38:59;;;;;;;7.07;4.53;;;;;;;;;;5013160;28;20380;-52
2021/05/20 01:41:26;;;;;;;7.90;4.33;;;;;;;;;;5013031;28;20092;-52
2021/05/20 01:43:52;;;;;;;6.17;4.87;;;;;;;;;;5012930;28;20030;-52
2021/05/20 01:46:19;;;;;;;8.80;4.70;;;;;;;;;;5014672;28;20124;-52
2021/05/20 01:48:48;;;;;;;8.40;4.30;;;;;;;;;;5013013;28;20273;-52
2021/05/20 01:51:24;;;;;;;9.13;4.63;;;;;;;;;;5012849;28;20504;-52
2021/05/20 01:53:57;;;;;;;5.50;4.20;;;;;;;;;;5012513;28;20036;-52
2021/05/20 01:56:28;;;;;;;7.33;4.20;;;;;;;;;;5012755;28;20385;-52
2021/05/20 01:58:55;;;;;;;11.40;5.87;;;;;;;;;;5012956;28;20109;-52
2021/05/20 02:01:21;;;;;;;7.87;5.00;;;;;;;;;;5012901;28;20480;-52
2021/05/20 02:03:48;;;;;;;7.70;4.87;;;;;;;;;;5012674;28;20397;-52
2021/05/20 02:06:15;;;;;;;13.23;5.27;;;;;;;;;;5012629;28;20425;-52
2021/05/20 02:08:42;;;;;;;8.87;4.47;;;;;;;;;;5012801;28;20034;-52
2021/05/20 02:11:09;;;;;;;6.27;4.30;;;;;;;;;;5012663;28;20374;-52
2021/05/20 02:13:36;;;;;;;5.63;4.13;;;;;;;;;;5012825;28;20480;-52
2021/05/20 02:16:03;;;;;;;8.23;4.73;;;;;;;;;;5012608;28;20029;-52
2021/05/20 02:18:30;;;;;;;7.50;4.23;;;;;;;;;;5012642;28;20030;-52
2021/05/20 02:20:57;;;;;;;5.90;3.87;;;;;;;;;;5012644;28;20029;-52
2021/05/20 02:23:24;;;;;;;7.70;5.03;;;;;;;;;;5012489;28;20062;-52
2021/05/20 02:25:51;;;;;;;10.53;6.20;;;;;;;;;;5012475;28;20030;-52
2021/05/20 02:28:18;;;;;;;11.23;6.10;;;;;;;;;;5012607;28;20109;-52
2021/05/20 02:30:45;;;;;;;12.83;6.07;;;;;;;;;;5012540;28;20033;-52
2021/05/20 02:33:12;;;;;;;10.50;5.10;;;;;;;;;;5012403;28;20109;-52
2021/05/20 02:35:39;;;;;;;5.43;4.17;;;;;;;;;;5012523;28;20532;-52
2021/05/20 02:38:06;;;;;;;7.73;4.77;;;;;;;;;;5012420;28;20030;-52
2021/05/20 02:40:43;;;;;;;6.33;4.30;;;;;;;;;;5012458;28;20029;-52
2021/05/20 02:43:17;;;;;;;7.50;4.57;;;;;;;;;;5012124;28;20030;-52
2021/05/20 02:45:50;;;;;;;8.77;4.60;;;;;;;;;;5013730;28;20041;-52
2021/05/20 02:48:21;;;;;;;10.47;5.07;;;;;;;;;;5016940;28;20054;-52
2021/05/20 02:50:51;;;;;;;9.07;5.77;;;;;;;;;;5014172;28;20038;-52
2021/05/20 02:53:24;;;;;;;7.80;4.70;;;;;;;;;;5016083;28;20026;-52
2021/05/20 02:55:56;;;;;;;9.60;4.50;;;;;;;;;;5015885;28;20030;-52
2021/05/20 02:58:23;;;;;;;10.00;4.50;;;;;;;;;;5015569;28;20388;-52
2021/05/20 03:00:50;;;;;;;6.63;4.03;;;;;;;;;;5016236;28;20025;-52
2021/05/20 03:03:17;;;;;;;8.27;3.93;;;;;;;;;;5015899;28;20026;-52
2021/05/20 03:05:44;;;;;;;8.67;4.10;;;;;;;;;;5015601;28;20033;-52
2021/05/20 03:08:11;;;;;;;10.17;3.87;;;;;;;;;;5015549;28;20093;-52
2021/05/20 03:10:39;;;;;;;5.47;3.90;;;;;;;;;;5015360;28;20030;-52
2021/05/20 03:13:05;;;;;;;12.43;4.10;;;;;;;;;;5015590;28;20037;-52
2021/05/20 03:15:32;;;;;;;9.07;3.80;;;;;;;;;;5015511;28;20485;-52
2021/05/20 03:17:59;;;;;;;9.33;4.43;;;;;;;;;;5015542;28;20029;-52
2021/05/20 03:20:26;;;;;;;5.03;3.73;;;;;;;;;;5015625;28;20026;-52
2021/05/20 03:23:08;;;;;;;8.97;3.50;;;;;;;;;;5015980;28;20376;-52
2021/05/20 03:25:42;;;;;;;5.87;3.30;;;;;;;;;;5015133;28;20384;-52
2021/05/20 03:28:20;;;;;;;4.73;3.30;;;;;;;;;;5015432;28;20018;-52
2021/05/20 03:30:51;;;;;;;9.17;3.47;;;;;;;;;;5015218;28;20342;-52
2021/05/20 03:33:21;;;;;;;6.23;2.90;;;;;;;;;;5015378;28;20028;-52
2021/05/20 03:35:56;;;;;;;4.07;2.60;;;;;;;;;;5014984;28;20104;-52
2021/05/20 03:38:23;;;;;;;7.87;3.50;;;;;;;;;;5015192;28;20022;-52
2021/05/20 03:40:51;;;;;;;4.97;3.33;;;;;;;;;;5014862;28;20459;-52
2021/05/20 03:46:14;;;;;;;7.20;3.47;;;;;;;;;;4977082;28;20033;-52
2021/05/20 03:48:49;;;;;;;6.13;3.43;;;;;;;;;;5014615;28;20425;-52
2021/05/20 03:51:16;;;;;;;7.20;3.60;;;;;;;;;;5012080;28;20042;-53
2021/05/20 03:53:43;;;;;;;12.60;4.10;;;;;;;;;;5014690;28;20022;-52
2021/05/20 03:56:10;;;;;;;7.43;4.33;;;;;;;;;;5014587;28;20025;-52
2021/05/20 03:58:37;;;;;;;7.73;4.27;;;;;;;;;;5014690;28;20417;-52
2021/05/20 04:01:04;;;;;;;7.40;3.90;;;;;;;;;;5014799;28;20028;-52
2021/05/20 04:03:31;;;;;;;5.57;4.20;;;;;;;;;;5014811;28;20034;-52
2021/05/20 04:05:59;;;;;;;9.43;4.23;;;;;;;;;;5014789;28;20053;-52
2021/05/20 04:08:26;;;;;;;5.83;3.67;;;;;;;;;;5014663;28;20034;-52
2021/05/20 04:10:54;;;;;;;5.93;3.33;;;;;;;;;;4997221;28;20041;-52
2021/05/20 04:13:40;;;;;;;6.30;4.20;;;;;;;;;;5014499;28;20038;-52
2021/05/20 04:16:13;;;;;;;7.57;4.23;;;;;;;;;;5014451;28;20026;-52
2021/05/20 04:18:41;;;;;;;7.17;4.23;;;;;;;;;;5014326;28;20092;-52
2021/05/20 04:21:10;;;;;;;8.30;4.00;;;;;;;;;;5014291;28;20032;-52
2021/05/20 04:23:43;;;;;;;6.03;3.67;;;;;;;;;;5014175;28;20026;-52
2021/05/20 04:26:10;;;;;;;7.40;3.70;;;;;;;;;;5014184;28;20018;-52
2021/05/20 04:28:37;;;;;;;6.27;3.13;;;;;;;;;;5014188;28;20062;-52
2021/05/20 04:31:04;;;;;;;6.13;3.83;;;;;;;;;;5014364;28;20037;-51
2021/05/20 04:33:30;;;;;;;4.83;3.40;;;;;;;;;;5014119;28;20114;-52
2021/05/20 04:35:57;;;;;;;7.00;3.90;;;;;;;;;;5014028;28;20043;-52
2021/05/20 04:38:24;;;;;;;7.17;3.83;;;;;;;;;;5014379;28;20026;-52
2021/05/20 04:40:51;;;;;;;19.67;4.77;;;;;;;;;;5013989;28;20045;-52
2021/05/20 04:43:17;;;;;;;9.80;4.93;;;;;;;;;;5014163;28;20025;-51
2021/05/20 04:45:46;;;;;;;6.33;4.43;;;;;;;;;;5013879;28;20095;-52
2021/05/20 04:48:13;;;;;;;6.07;3.73;;;;;;;;;;5014932;28;20065;-52
2021/05/20 04:50:41;;;;;;;6.23;3.90;;;;;;;;;;5013987;28;20036;-52
2021/05/20 04:53:08;;;;;;;6.27;4.00;;;;;;;;;;5013677;28;20393;-52
2021/05/20 04:55:35;;;;;;;6.93;3.70;;;;;;;;;;5013724;28;20026;-52
2021/05/20 04:58:02;;;;;;;4.60;3.87;;;;;;;;;;5013579;28;20037;-52
2021/05/20 05:00:28;;;;;;;6.37;3.70;;;;;;;;;;5013681;28;20428;-52
2021/05/20 05:02:55;;;;;;;7.00;3.97;;;;;;;;;;5013621;28;20085;-52
2021/05/20 05:05:22;;;;;;;6.83;4.03;;;;;;;;;;5013635;28;20500;-51
2021/05/20 05:07:49;;;;;;;10.00;3.47;;;;;;;;;;5013492;28;20393;-52
2021/05/20 05:10:16;;;;;;;7.47;3.73;;;;;;;;;;5013103;28;20029;-52
2021/05/20 05:12:42;;;;;;;9.47;4.00;;;;;;;;;;5013435;28;20065;-52
2021/05/20 05:15:09;;;;;;;5.27;3.70;;;;;;;;;;5013509;28;20022;-52
2021/05/20 05:17:37;;;;;;;7.27;4.10;;;;;;;;;;5013380;28;20028;-51
2021/05/20 05:20:05;;;;;;;6.87;4.20;;;;;;;;;;5013232;28;20389;-51
2021/05/20 05:22:32;;;;;;;5.40;4.40;;;;;;;;;;5013197;28;20502;-52
2021/05/20 05:24:59;;;;;;;7.20;4.57;;;;;;;;;;5013222;28;20028;-51
2021/05/20 05:27:26;;;;;;;8.67;5.90;;;;;;;;;;5013342;28;20084;-51
2021/05/20 05:29:53;;;;;;;11.00;5.33;;;;;;;;;;5013210;28;20022;-51
2021/05/20 05:32:19;;;;;;;8.63;5.47;;;;;;;;;;5013134;28;20429;-51
2021/05/20 05:34:46;;;;;;;10.47;5.93;;;;;;;;;;5012967;28;20026;-52
2021/05/20 05:37:13;;;;;;;7.73;5.17;;;;;;;;;;5012977;28;20370;-52
2021/05/20 05:39:40;;;;;;;5.83;4.47;;;;;;;;;;5013199;28;20026;-51
2021/05/20 05:42:07;;;;;;;9.03;4.80;;;;;;;;;;5012901;28;20475;-51
2021/05/20 05:44:34;;;;;;;5.50;4.70;;;;;;;;;;5012984;28;20018;-52
2021/05/20 05:47:01;;;;;;;5.30;4.10;;;;;;;;;;5014666;28;20507;-51
2021/05/20 05:49:34;;;;;;;8.50;4.97;;;;;;;;;;5013082;28;20026;-52
2021/05/20 05:52:05;;;;;;;8.43;5.10;;;;;;;;;;5012805;28;20194;-52
2021/05/20 05:54:32;;;;;;;6.73;5.03;;;;;;;;;;5012910;28;20053;-52
2021/05/20 05:56:59;;;;;;;7.63;4.63;;;;;;;;;;5012829;28;20030;-52
2021/05/20 05:59:26;;;;;;;6.53;5.00;;;;;;;;;;5012749;28;20029;-51
2021/05/20 06:01:52;;;;;;;6.37;5.00;;;;;;;;;;5012965;28;20022;-51
2021/05/20 06:04:19;;;;;;;10.63;4.90;;;;;;;;;;5012645;28;20444;-52
2021/05/20 06:06:47;;;;;;;11.27;5.20;;;;;;;;;;5012796;28;20366;-52
2021/05/20 06:09:13;;;;;;;9.77;6.00;;;;;;;;;;4995140;28;20559;-52
2021/05/20 06:11:42;;;;;;;11.67;5.73;;;;;;;;;;5012657;28;20428;-52
2021/05/20 06:14:10;;;;;;;7.73;5.30;;;;;;;;;;5012754;28;20022;-52
2021/05/20 06:16:40;;;;;;;7.53;5.87;;;;;;;;;;5013185;28;20440;-52
2021/05/20 06:19:07;;;;;;;11.10;6.73;;;;;;;;;;5012759;28;20018;-52
2021/05/20 06:21:34;;;;;;;15.80;6.63;;;;;;;;;;4998894;28;20373;-52
2021/05/20 06:24:01;;;;;;;9.23;6.27;;;;;;;;;;5016526;28;20033;-52
2021/05/20 06:26:28;;;;;;;7.17;5.57;;;;;;;;;;5016441;28;20372;-52
2021/05/20 06:28:55;;;;;;;10.20;6.30;;;;;;;;;;5016412;28;20088;-52
2021/05/20 06:31:22;;;;;;;12.70;6.73;;;;;;;;;;5016286;28;20396;-51
2021/05/20 06:33:50;;;;;;;7.63;6.00;;;;;;;;;;4998825;28;20033;-51
2021/05/20 06:36:18;;;;;;;10.40;5.77;;;;;;;;;;5016459;28;20022;-52
2021/05/20 06:38:45;;;;;;;8.57;5.60;;;;;;;;;;5016376;28;20022;-52
2021/05/20 06:41:12;;;;;;;10.70;6.70;;;;;;;;;;5016233;28;20037;-52
2021/05/20 06:43:39;;;;;;;10.00;6.17;;;;;;;;;;5016256;28;20502;-51
2021/05/20 06:46:06;;;;;;;10.07;6.80;;;;;;;;;;5016016;28;20030;-52
2021/05/20 06:48:34;;;;;;;8.47;6.47;;;;;;;;;;5018014;28;20050;-52
2021/05/20 06:51:01;;;;;;;8.67;5.77;;;;;;;;;;5016044;28;20030;-52
2021/05/20 06:53:30;;;;;;;8.30;5.53;;;;;;;;;;5016292;28;20037;-51
2021/05/20 06:56:00;;;;;;;7.43;5.43;;;;;;;;;;5016006;28;20113;-52
2021/05/20 07:01:12;;;;;;;8.52;5.25;;;;;;;;;;5016248;28;20435;-51
2021/05/20 07:03:39;;;;;;;8.43;5.57;;;;;;;;;;5015806;28;20083;-52
2021/05/20 07:06:06;;;;;;;10.03;5.83;;;;;;;;;;5015718;28;20083;-52
2021/05/20 07:08:33;;;;;;;9.00;6.43;;;;;;;;;;5015705;28;20022;-52
2021/05/20 07:10:59;;;;;;;7.83;5.53;;;;;;;;;;5015626;28;20026;-52
2021/05/20 07:13:26;;;;;;;9.90;5.50;;;;;;;;;;5015540;28;20038;-51
2021/05/20 07:15:53;;;;;;;8.70;5.50;;;;;;;;;;5015480;28;20018;-51
2021/05/20 07:18:20;;;;;;;8.43;5.30;;;;;;;;;;5015649;28;20041;-52
2021/05/20 07:20:47;;;;;;;9.27;5.40;;;;;;;;;;5015362;28;20029;-51
2021/05/20 07:23:14;;;;;;;8.60;5.47;;;;;;;;;;4997859;28;20025;-52
2021/05/20 07:25:42;;;;;;;8.70;5.43;;;;;;;;;;5015181;28;20109;-51
2021/05/20 07:28:09;;;;;;;7.50;5.20;;;;;;;;;;5015438;28;20116;-51
2021/05/20 07:30:36;;;;;;;9.30;6.33;;;;;;;;;;5015365;28;20041;-52
2021/05/20 07:33:03;;;;;;;7.70;5.00;;;;;;;;;;5014349;28;20448;-51
2021/05/20 07:35:30;;;;;;;6.33;4.93;;;;;;;;;;5015293;28;20069;-51
2021/05/20 07:37:57;;;;;;;9.23;5.77;;;;;;;;;;5015205;28;20034;-52
2021/05/20 07:40:24;;;;;;;8.60;5.97;;;;;;;;;;5015254;28;20477;-51
2021/05/20 07:42:51;;;;;;;8.47;5.57;;;;;;;;;;5014999;28;20034;-52
2021/05/20 07:45:18;;;;;;;7.57;5.10;;;;;;;;;;5015030;28;20392;-52
2021/05/20 07:47:53;;;;;;;8.83;5.83;;;;;;;;;;5016786;28;20054;-52
2021/05/20 07:50:20;;;;;;;9.90;5.85;;;;;;;;;;5014939;28;20018;-51
2021/05/20 07:52:48;;;;;;;6.87;4.87;;;;;;;;;;5014921;28;20041;-51
2021/05/20 07:55:15;;;;;;;5.57;4.40;;;;;;;;;;5014743;28;20029;-52
2021/05/20 07:57:42;;;;;;;6.43;5.00;;;;;;;;;;5014833;28;20026;-52
2021/05/20 08:00:10;;;;;;;8.50;5.27;;;;;;;;;;5014671;28;20030;-51
2021/05/20 08:03:25;;;;;;;9.80;5.90;;;;;;;;;;5014872;28;20034;-52
2021/05/20 08:08:18;;;;;;;11.30;5.43;;;;;;;;;;5014774;28;20116;-52
2021/05/20 08:13:12;;;;;;;8.27;5.40;;;;;;;;;;5014572;28;20388;-52
2021/05/20 08:15:42;;;;;;;6.70;4.63;;;;;;;;;;5014391;28;20053;-51
2021/05/20 08:18:09;;;;;;;8.90;5.40;;;;;;;;;;5014497;28;20025;-52
2021/05/20 08:20:36;;;;;;;9.53;5.50;;;;;;;;;;5014315;28;20033;-51
2021/05/20 08:23:03;;;;;;;6.67;5.10;;;;;;;;;;5014309;28;20080;-52
2021/05/20 08:25:30;;;;;;;7.20;5.23;;;;;;;;;;5014407;28;20034;-51
2021/05/20 08:27:56;;;;;;;9.37;5.40;;;;;;;;;;5014293;28;20082;-52
2021/05/20 08:30:23;;;;;;;9.43;5.53;;;;;;;;;;5014152;28;20465;-52
2021/05/20 08:32:50;;;;;;;6.97;4.70;;;;;;;;;;5014145;28;20034;-51
2021/05/20 08:35:17;;;;;;;7.90;5.43;;;;;;;;;;5014078;28;20048;-52
2021/05/20 08:37:44;;;;;;;7.17;5.30;;;;;;;;;;5013993;28;20284;-52
2021/05/20 08:40:12;;;;;;;7.63;5.33;;;;;;;;;;5014111;28;20026;-52
2021/05/20 08:42:39;;;;;;;8.50;5.63;;;;;;;;;;5014255;28;20031;-52
2021/05/20 08:45:10;;;;;;;9.67;5.30;;;;;;;;;;5014277;28;20397;-50
2021/05/20 08:47:37;;;;;;;11.07;5.43;;;;;;;;;;5015648;28;20089;-52
2021/05/20 08:50:05;;;;;;;6.30;4.77;;;;;;;;;;5013838;28;20026;-52
2021/05/20 08:52:32;;;;;;;6.73;4.30;;;;;;;;;;5013800;28;20034;-52
2021/05/20 08:55:00;;;;;;;10.37;6.07;;;;;;;;;;5013904;28;20116;-51
2021/05/20 08:57:27;;;;;;;7.03;5.07;;;;;;;;;;5013657;28;20052;-51
2021/05/20 08:59:54;;;;;;;8.03;5.73;;;;;;;;;;5013869;28;20153;-52
2021/05/20 09:02:24;;;;;;;8.40;5.97;;;;;;;;;;5013755;28;20033;-52
2021/05/20 09:04:58;;;;;;;9.20;5.60;;;;;;;;;;5013510;28;20045;-51
2021/05/20 09:07:33;;;;;;;10.93;6.20;;;;;;;;;;5013653;28;20097;-51
2021/05/20 09:09:59;;;;;;;;;;;;;;;;;;5014082;28;20090;-51
2021/05/20 09:12:32;;;;;;;7.57;5.07;;;;;;;;;;5013386;28;20011;-51
2021/05/20 09:14:58;;;;;;;8.80;4.83;;;;;;;;;;5013462;28;20440;-51
2021/05/20 09:17:25;;;;;;;7.10;5.20;;;;;;;;;;5013551;28;20033;-52
2021/05/20 09:19:53;;;;;;;8.10;5.50;;;;;;;;;;5013455;28;20033;-52
2021/05/20 09:22:21;;;;;;;8.70;5.20;;;;;;;;;;5013255;28;20057;-51
2021/05/20 09:24:52;;;;;;;7.40;5.27;;;;;;;;;;5013174;28;20029;-51
2021/05/20 09:27:26;;;;;;;12.80;5.37;;;;;;;;;;4995714;28;20104;-51
2021/05/20 09:30:11;;;;;;;7.33;5.30;;;;;;;;;;5013155;28;20073;-51
2021/05/20 09:32:37;;;;;;;8.20;4.65;;;;;;;;;;5013140;28;20038;-52
2021/05/20 09:35:05;;;;;;;10.60;5.77;;;;;;;;;;5013074;28;20029;-51
2021/05/20 09:37:34;;;;;;;7.27;5.00;;;;;;;;;;5013116;28;20026;-51
2021/05/20 09:40:01;;;;;;;6.70;4.60;;;;;;;;;;5012920;28;20034;-51
2021/05/20 09:42:31;;;;;;;8.30;5.33;;;;;;;;;;5012866;28;20030;-51
2021/05/20 09:45:12;;;;;;;9.03;5.47;;;;;;;;;;5012911;28;20024;-51
2021/05/20 09:47:38;;;;;;;10.03;5.67;;;;;;;;;;5014872;28;20690;-52
2021/05/20 09:50:14;;;;;;;6.70;5.00;;;;;;;;;;5011437;28;20523;-51
2021/05/20 09:52:41;;;;;;;10.50;6.77;;;;;;;;;;5012884;28;20330;-51
2021/05/20 09:55:19;;;;;;;10.00;5.70;;;;;;;;;;5012681;28;20396;-52
2021/05/20 09:57:46;;;;;;;8.50;4.70;;;;;;;;;;5012825;28;20026;-51
2021/05/20 10:00:13;;;;;;;9.07;5.00;;;;;;;;;;5012985;28;20267;-51
2021/05/20 10:02:40;;;;;;;7.03;4.83;;;;;;;;;;5012809;28;20270;-51
2021/05/20 10:05:20;;;;;;;14.10;5.03;;;;;;;;;;5013061;28;20263;-51
2021/05/20 10:07:47;;;;;;;8.33;4.90;;;;;;;;;;5012791;28;20263;-51
2021/05/20 10:10:15;;;;;;;10.13;4.50;;;;;;;;;;5012686;28;20666;-51
2021/05/20 10:12:45;;;;;;;8.23;5.13;;;;;;;;;;5012517;28;20345;-51
2021/05/20 10:15:19;;;;;;;6.60;4.73;;;;;;;;;;5012618;28;20256;-51
2021/05/20 10:17:46;;;;;;;6.53;4.87;;;;;;;;;;5012666;28;20384;-51
2021/05/20 10:20:15;;;;;;;6.00;4.30;;;;;;;;;;5012665;28;20057;-52
2021/05/20 10:22:42;;;;;;;8.67;4.90;;;;;;;;;;5012753;28;20607;-51
2021/05/20 10:25:09;;;;;;;6.20;3.90;;;;;;;;;;5012727;28;20022;-52
2021/05/20 10:27:37;;;;;;;7.90;5.03;;;;;;;;;;5012570;28;20264;-52
2021/05/20 10:30:05;;;;;;;7.13;4.70;;;;;;;;;;5012557;28;20677;-51
2021/05/20 10:32:32;;;;;;;6.57;5.00;;;;;;;;;;5012453;28;20291;-51
2021/05/20 10:34:59;;;;;;;7.27;5.30;;;;;;;;;;5012430;28;20251;-51
2021/05/20 10:37:43;;;;;;;11.03;5.03;;;;;;;;;;5012275;28;20262;-51
2021/05/20 10:40:25;;;;;;;7.87;5.20;;;;;;;;;;5012570;28;20259;-51
2021/05/20 10:43:08;;;;;;;9.07;4.57;;;;;;;;;;5012501;28;20398;-51
2021/05/20 10:45:36;;;;;;;7.43;4.70;;;;;;;;;;5012295;28;20711;-51
2021/05/20 10:48:07;;;;;;;7.63;5.07;;;;;;;;;;5014330;28;20337;-51
2021/05/20 10:50:52;;;;;;;9.03;5.90;;;;;;;;;;5012507;28;20295;-52
2021/05/20 10:53:38;;;;;;;9.85;5.50;;;;;;;;;;5012684;28;20329;-51
2021/05/20 10:56:08;;;;;;;8.65;6.22;;;;;;;;;;5012231;28;20065;-52
2021/05/20 10:58:36;;;;;;;10.23;5.77;;;;;;;;;;5012422;28;20018;-51
2021/05/20 11:01:03;;;;;;;11.13;6.47;;;;;;;;;;5012614;28;20255;-51
2021/05/20 11:03:49;;;;;;;15.27;6.40;;;;;;;;;;5012169;28;20339;-51
2021/05/20 11:06:16;;;;;;;10.60;6.50;;;;;;;;;;5012299;28;20584;-51
2021/05/20 11:08:46;;;;;;;9.50;6.20;;;;;;;;;;5015718;28;20085;-51
2021/05/20 11:11:22;;;;;;;7.77;5.80;;;;;;;;;;5015600;28;20626;-51
2021/05/20 11:13:49;;;;;;;6.60;5.33;;;;;;;;;;5015803;28;20355;-51
2021/05/20 11:16:17;;;;;;;6.93;4.43;;;;;;;;;;5015777;28;20310;-51
2021/05/20 11:18:44;;;;;;;6.60;5.20;;;;;;;;;;5015646;28;20259;-51
2021/05/20 11:21:11;;;;;;;8.13;5.30;;;;;;;;;;5015507;28;20271;-51
2021/05/20 11:23:38;;;;;;;9.77;6.13;;;;;;;;;;5015465;28;20283;-51
2021/05/20 11:26:07;;;;;;;7.83;5.43;;;;;;;;;;5015513;28;20270;-51
2021/05/20 11:28:41;;;;;;;8.93;5.90;;;;;;;;;;5015398;28;20607;-51
2021/05/20 11:31:08;;;;;;;7.00;4.97;;;;;;;;;;5015328;28;20738;-52
2021/05/20 11:33:53;;;;;;;10.67;5.47;;;;;;;;;;5015154;28;20319;-51
2021/05/20 11:36:20;;;;;;;24.10;5.60;;;;;;;;;;5015359;28;20251;-51
2021/05/20 11:38:58;;;;;;;8.77;6.23;;;;;;;;;;5015249;28;20276;-51
2021/05/20 11:41:26;;;;;;;7.93;5.03;;;;;;;;;;5015284;28;20291;-51
2021/05/20 11:44:06;;;;;;;6.97;5.13;;;;;;;;;;5015017;28;20247;-52
2021/05/20 11:46:33;;;;;;;12.33;8.27;;;;;;;;;;5015020;28;20338;-51
2021/05/20 11:49:21;;;;;;;15.37;9.37;;;;;;;;;;5016910;28;20287;-51
2021/05/20 11:51:50;;;;;;;13.93;8.23;;;;;;;;;;5015113;28;20291;-51
2021/05/20 11:54:18;;;;;;;13.27;8.30;;;;;;;;;;5014943;28;20622;-51
2021/05/20 11:56:50;;;;;;;11.70;6.43;;;;;;;;;;5014792;28;20658;-51
2021/05/20 11:59:40;;;;;;;11.37;6.50;;;;;;;;;;5014785;28;20256;-51
2021/05/20 12:02:07;;;;;;;9.70;8.43;;;;;;;;;;5014801;28;20262;-51
2021/05/20 12:04:34;;;;;;;13.00;8.00;;;;;;;;;;5014656;28;20723;-51
2021/05/20 12:07:01;;;;;;;18.40;9.53;;;;;;;;;;5014719;28;20266;-51
2021/05/20 12:09:28;;;;;;;14.83;10.10;;;;;;;;;;5014572;28;20266;-51
2021/05/20 12:11:55;;;;;;;9.97;8.10;;;;;;;;;;5014488;28;20291;-51
2021/05/20 12:14:23;;;;;;;9.80;7.30;;;;;;;;;;5014330;28;20699;-51
2021/05/20 12:17:10;;;;;;;10.47;7.10;;;;;;;;;;5014380;28;20244;-51
2021/05/20 12:19:38;;;;;;;9.43;6.47;;;;;;;;;;5014275;28;20259;-51
2021/05/20 12:22:08;;;;;;;9.53;7.37;;;;;;;;;;5014494;28;20243;-51
2021/05/20 12:24:36;;;;;;;10.10;7.30;;;;;;;;;;5014264;28;20256;-51
2021/05/20 12:27:08;;;;;;;9.83;6.87;;;;;;;;;;5014432;28;20306;-52
2021/05/20 12:29:35;;;;;;;10.23;5.57;;;;;;;;;;5014140;28;20772;-51
2021/05/20 12:32:02;;;;;;;12.87;6.63;;;;;;;;;;5014474;28;20302;-51
2021/05/20 12:34:29;;;;;;;11.70;6.23;;;;;;;;;;5014209;28;20262;-51
2021/05/20 12:37:03;;;;;;;9.37;6.17;;;;;;;;;;5014172;28;20263;-51
2021/05/20 12:39:31;;;;;;;8.88;6.28;;;;;;;;;;5014054;28;20745;-52
2021/05/20 12:41:58;;;;;;;9.90;6.37;;;;;;;;;;5014024;28;20034;-51
2021/05/20 12:44:25;;;;;;;8.80;6.97;;;;;;;;;;5014027;28;20274;-51
2021/05/20 12:46:52;;;;;;;12.20;8.13;;;;;;;;;;5014033;28;20746;-51
2021/05/20 12:49:20;;;;;;;15.13;9.53;;;;;;;;;;5015733;28;20361;-52
2021/05/20 12:52:00;;;;;;;10.20;7.47;;;;;;;;;;5013684;28;20812;-51
2021/05/20 12:54:27;;;;;;;14.07;8.43;;;;;;;;;;5014142;28;20264;-51
2021/05/20 12:57:04;;;;;;;14.13;8.00;;;;;;;;;;5013772;28;20606;-51
2021/05/20 12:59:39;;;;;;;10.13;7.40;;;;;;;;;;5013604;28;20267;-51
2021/05/20 13:02:18;;;;;;;13.10;8.65;;;;;;;;;;5013578;28;20339;-51
2021/05/20 13:04:45;;;;;;;15.27;8.23;;;;;;;;;;5013517;28;20038;-51
2021/05/20 13:07:13;;;;;;;16.10;7.47;;;;;;;;;;5013613;28;20477;-51
2021/05/20 13:09:41;;;;;;;9.00;6.77;;;;;;;;;;5013799;28;20262;-51
2021/05/20 13:12:11;;;;;;;10.50;7.90;;;;;;;;;;5013562;28;20384;-52
2021/05/20 13:14:40;;;;;;;14.93;7.07;;;;;;;;;;5013496;28;20085;-52
2021/05/20 13:22:29;;;;;;;8.07;6.10;;;;;;;;;;5013499;28;20370;-52
2021/05/20 13:25:08;;;;;;;10.47;6.70;;;;;;;;;;5013219;28;20040;-51
2021/05/20 13:27:35;;;;;;;9.60;6.87;;;;;;;;;;5013320;28;20073;-51
2021/05/20 13:30:08;;;;;;;10.53;6.70;;;;;;;;;;5012454;28;20381;-51
2021/05/20 13:35:07;;;;;;;10.83;6.80;;;;;;;;;;5013197;28;20029;-51
2021/05/20 13:37:33;;;;;;;11.10;7.67;;;;;;;;;;5012986;28;20029;-52
2021/05/20 13:40:04;;;;;;;11.70;6.80;;;;;;;;;;5013059;28;20090;-51
2021/05/20 13:42:31;;;;;;;10.43;7.00;;;;;;;;;;5013118;28;20032;-51
2021/05/20 13:44:58;;;;;;;8.63;6.57;;;;;;;;;;5012886;28;20504;-51
2021/05/20 13:47:26;;;;;;;9.33;6.60;;;;;;;;;;5014088;28;20044;-52
2021/05/20 13:49:53;;;;;;;11.40;7.60;;;;;;;;;;5012869;28;20050;-52
2021/05/20 13:52:26;;;;;;;12.00;7.27;;;;;;;;;;5012896;28;20034;-51
2021/05/20 13:54:53;;;;;;;9.87;7.37;;;;;;;;;;5012849;28;20097;-52
2021/05/20 13:57:20;;;;;;;9.70;6.90;;;;;;;;;;5012846;28;20026;-52
2021/05/20 13:59:48;;;;;;;9.37;6.90;;;;;;;;;;4995221;28;20041;-51
2021/05/20 14:02:17;;;;;;;12.47;7.43;;;;;;;;;;5012783;28;20085;-52
2021/05/20 14:04:44;;;;;;;10.63;7.53;;;;;;;;;;5012907;28;20033;-52
2021/05/20 14:07:15;;;;;;;9.63;7.53;;;;;;;;;;5012801;28;20493;-52
2021/05/20 14:09:42;;;;;;;9.97;7.17;;;;;;;;;;5012798;28;20053;-51
2021/05/20 14:12:10;;;;;;;12.87;7.70;;;;;;;;;;5012780;28;20040;-52
2021/05/20 14:14:37;;;;;;;19.10;7.90;;;;;;;;;;5012461;28;20450;-52
2021/05/20 14:17:05;;;;;;;11.43;8.10;;;;;;;;;;5012787;28;20030;-52
2021/05/20 14:19:34;;;;;;;9.93;7.43;;;;;;;;;;5012781;28;20093;-52
2021/05/20 14:22:02;;;;;;;10.47;8.00;;;;;;;;;;4995094;28;20030;-52
2021/05/20 14:24:29;;;;;;;11.37;7.57;;;;;;;;;;5012790;28;20045;-52
2021/05/20 14:26:56;;;;;;;11.10;7.73;;;;;;;;;;5012700;28;20029;-52
2021/05/20 14:29:23;;;;;;;11.20;8.47;;;;;;;;;;5012597;28;20488;-52
2021/05/20 14:31:50;;;;;;;14.37;8.93;;;;;;;;;;5012527;28;20053;-52
2021/05/20 14:34:18;;;;;;;13.93;8.00;;;;;;;;;;5012576;28;20029;-52
2021/05/20 14:36:46;;;;;;;15.73;8.23;;;;;;;;;;5012387;28;20038;-52
2021/05/20 14:39:13;;;;;;;9.70;7.20;;;;;;;;;;5012473;28;20489;-52
2021/05/20 14:41:40;;;;;;;8.87;7.00;;;;;;;;;;5014640;28;20037;-52
2021/05/20 14:44:10;;;;;;;10.23;8.03;;;;;;;;;;5016128;28;20045;-52
2021/05/20 14:46:37;;;;;;;11.20;7.63;;;;;;;;;;5016465;28;20045;-52
2021/05/20 14:49:05;;;;;;;10.87;6.70;;;;;;;;;;5018047;28;20065;-52
2021/05/20 14:51:35;;;;;;;10.47;6.30;;;;;;;;;;5016002;28;20115;-52
2021/05/20 14:54:07;;;;;;;10.40;6.87;;;;;;;;;;5016001;28;20073;-52
2021/05/20 15:07:12;;;;;;;9.70;6.13;;;;;;;;;;5015964;28;19912;-52
2021/05/20 15:10:05;;;;;;;7.60;5.77;;;;;;;;;;5015837;28;20025;-52
2021/05/20 15:15:10;;;;;;;11.00;6.73;;;;;;;;;;5015676;28;20024;-52
2021/05/20 15:17:40;;;;;;;9.67;6.37;;;;;;;;;;5015541;28;20089;-53
2021/05/20 15:20:07;;;;;;;8.10;6.00;;;;;;;;;;5015565;28;20412;-52
2021/05/20 15:22:34;;;;;;;7.73;5.57;;;;;;;;;;5015625;28;20034;-53
2021/05/20 15:25:01;;;;;;;9.23;5.47;;;;;;;;;;5015825;28;20084;-52